Time;durP1;ratioP1;P1;durP2;ratioP2;P2;SDS_P1;SDS_P2;PMS_P1;PMS_P2;Temp;Humidity;BMP_temperature;BMP_pressure;BME280_temperature;BME280_humidity;BME280_pressure;Samples;Min_cycle;Max_cycle;Signal;HPM_P1;HPM_P2
2023/12/22 07:32:59;;;;;;;40.17;7.53;;;;;;;7.14;100.00;100333.94;5262052;28;21098;-69
2023/12/22 07:35:30;;;;;;;35.57;7.37;;;;;;;7.22;100.00;100330.94;5250617;28;20040;-70
2023/12/22 07:38:02;;;;;;;37.20;7.23;;;;;;;7.25;100.00;100325.56;5251106;28;20037;-70
2023/12/22 07:40:34;;;;;;;40.53;9.10;;;;;;;7.30;100.00;100332.25;5250474;28;20035;-70
2023/12/22 07:43:05;;;;;;;33.50;7.80;;;;;;;7.31;100.00;100334.81;5250555;28;20466;-71
2023/12/22 07:45:37;;;;;;;38.50;9.77;;;;;;;7.34;100.00;100323.38;5248102;28;20033;-70
2023/12/22 07:48:08;;;;;;;29.67;7.20;;;;;;;7.34;100.00;100323.38;5250147;28;20108;-71
2023/12/22 07:50:41;;;;;;;35.47;10.07;;;;;;;7.27;100.00;100315.03;5248976;28;20159;-71
2023/12/22 07:53:13;;;;;;;32.13;8.03;;;;;;;7.41;100.00;100324.72;5250171;28;20028;-70
2023/12/22 07:55:44;;;;;;;43.03;7.97;;;;;;;7.44;100.00;100308.91;5248667;28;20026;-70
2023/12/22 07:58:17;;;;;;;27.17;7.97;;;;;;;7.50;100.00;100316.38;5249737;28;20083;-69
2023/12/22 08:00:48;;;;;;;28.53;6.57;;;;;;;7.59;100.00;100330.66;5250027;28;20041;-68
2023/12/22 08:03:20;;;;;;;31.60;7.77;;;;;;;7.61;100.00;100335.81;5250697;28;20383;-67
2023/12/22 08:05:51;;;;;;;31.50;7.17;;;;;;;7.62;100.00;100324.44;5248700;28;20525;-67
2023/12/22 08:08:22;;;;;;;29.87;7.77;;;;;;;7.58;100.00;100315.09;5248542;28;20409;-68
2023/12/22 08:10:53;;;;;;;31.07;6.20;;;;;;;7.71;100.00;100336.13;5247698;28;20452;-70
2023/12/22 08:13:25;;;;;;;37.23;9.07;;;;;;;7.72;100.00;100336.03;5249474;28;20021;-68
2023/12/22 08:15:56;;;;;;;35.27;8.20;;;;;;;7.63;100.00;100326.13;5249740;28;20025;-68
2023/12/22 08:18:27;;;;;;;29.60;6.17;;;;;;;7.66;100.00;100312.09;5248163;28;20025;-68
2023/12/22 08:20:58;;;;;;;32.70;9.07;;;;;;;7.74;100.00;100321.16;5248820;28;20356;-68
2023/12/22 08:23:30;;;;;;;27.00;5.60;;;;;;;7.82;100.00;100322.50;5248387;28;20018;-68
2023/12/22 08:26:02;;;;;;;24.63;5.87;;;;;;;7.82;100.00;100317.28;5247495;28;20021;-67
2023/12/22 08:28:33;;;;;;;26.97;6.97;;;;;;;7.84;100.00;100325.84;5246497;28;20029;-67
2023/12/22 08:31:04;;;;;;;29.80;6.60;;;;;;;7.84;100.00;100331.91;5248648;28;20076;-67
2023/12/22 08:33:36;;;;;;;24.97;6.33;;;;;;;7.83;100.00;100326.78;5247750;28;20048;-68
2023/12/22 08:36:07;;;;;;;20.00;4.37;;;;;;;7.91;100.00;100321.09;5248208;28;20026;-68
2023/12/22 08:38:40;;;;;;;18.60;4.60;;;;;;;7.89;100.00;100328.19;5247717;28;20017;-68
2023/12/22 08:41:11;;;;;;;16.43;4.57;;;;;;;7.91;100.00;100331.53;5247204;28;20037;-68
2023/12/22 08:43:43;;;;;;;19.63;5.07;;;;;;;7.93;100.00;100320.09;5237690;28;20492;-67
2023/12/22 08:46:14;;;;;;;21.07;4.07;;;;;;;7.94;100.00;100316.56;5233975;28;20033;-68
2023/12/22 08:48:46;;;;;;;17.47;4.37;;;;;;;7.95;100.00;100318.25;5234126;28;20025;-69
2023/12/22 08:51:17;;;;;;;20.13;4.97;;;;;;;7.91;100.00;100301.09;5233707;28;20263;-68
2023/12/22 08:53:50;;;;;;;13.73;3.20;;;;;;;7.99;100.00;100317.13;5234431;28;20480;-69
2023/12/22 08:56:22;;;;;;;18.17;4.67;;;;;;;7.96;100.00;100321.69;5233076;28;20018;-68
2023/12/22 08:58:55;;;;;;;16.70;4.50;;;;;;;7.95;100.00;100314.81;5234186;28;20033;-68
2023/12/22 09:01:26;;;;;;;13.90;3.33;;;;;;;7.99;100.00;100319.75;5232990;28;20460;-68
2023/12/22 09:03:57;;;;;;;19.03;4.17;;;;;;;7.91;100.00;100305.47;5233450;28;20029;-68
2023/12/22 09:06:28;;;;;;;12.07;3.63;;;;;;;7.94;100.00;100308.72;5233465;28;20490;-69
2023/12/22 09:09:00;;;;;;;15.07;4.13;;;;;;;7.82;100.00;100293.81;5234245;28;20034;-68
2023/12/22 09:11:31;;;;;;;11.13;3.10;;;;;;;7.98;100.00;100305.03;5232435;28;20228;-69
2023/12/22 09:14:05;;;;;;;12.60;2.73;;;;;;;8.01;100.00;100304.03;5238861;28;20030;-69
2023/12/22 09:16:37;;;;;;;16.45;2.60;;;;;;;8.04;100.00;100303.00;5234950;28;20021;-69
2023/12/22 09:19:08;;;;;;;16.50;3.50;;;;;;;8.08;100.00;100318.38;5233811;28;20052;-68
2023/12/22 09:21:40;;;;;;;11.70;2.60;;;;;;;7.99;100.00;100298.88;5233121;28;20377;-67
2023/12/22 09:24:12;;;;;;;11.43;3.57;;;;;;;8.10;100.00;100307.84;5233515;28;20027;-67
2023/12/22 09:26:43;;;;;;;10.07;2.13;;;;;;;8.13;100.00;100312.91;5232978;28;20029;-66
2023/12/22 09:29:16;;;;;;;8.40;2.63;;;;;;;8.20;100.00;100316.81;5233030;28;20408;-68
2023/12/22 09:31:47;;;;;;;7.87;1.67;;;;;;;8.22;100.00;100309.75;5233364;28;20056;-69
2023/12/22 09:34:18;;;;;;;10.40;2.40;;;;;;;8.47;100.00;100307.47;5232742;28;20476;-69
2023/12/22 09:36:50;;;;;;;7.53;2.17;;;;;;;8.41;100.00;100297.41;5233498;28;20026;-68
2023/12/22 09:39:21;;;;;;;9.57;2.37;;;;;;;8.38;100.00;100282.75;5232710;28;20028;-67
2023/12/22 09:41:52;;;;;;;8.40;2.30;;;;;;;8.42;100.00;100293.84;5232798;28;20072;-68
2023/12/22 09:44:27;;;;;;;7.97;1.87;;;;;;;8.42;100.00;100289.47;5232917;28;20017;-67
2023/12/22 09:47:02;;;;;;;5.47;1.87;;;;;;;8.44;100.00;100285.00;5234159;28;20663;-67
2023/12/22 09:49:34;;;;;;;6.30;1.57;;;;;;;8.54;100.00;100297.47;5233630;28;20018;-68
2023/12/22 09:52:07;;;;;;;9.73;2.07;;;;;;;8.54;100.00;100287.03;5231038;28;20411;-69
2023/12/22 09:54:40;;;;;;;8.48;2.08;;;;;;;8.57;100.00;100297.34;5231878;28;20056;-69
2023/12/22 09:57:12;;;;;;;7.27;1.40;;;;;;;8.55;100.00;100278.31;5231878;28;20025;-67
2023/12/22 09:59:43;;;;;;;4.47;1.23;;;;;;;8.63;100.00;100290.91;5232795;28;20041;-68
2023/12/22 10:02:15;;;;;;;8.40;1.83;;;;;;;8.67;100.00;100285.44;5232620;28;20029;-68
2023/12/22 10:04:46;;;;;;;10.13;1.40;;;;;;;8.57;100.00;100266.84;5232502;28;20026;-68
2023/12/22 10:07:18;;;;;;;10.23;2.80;;;;;;;8.75;100.00;100273.66;5233240;28;20109;-69
2023/12/22 10:09:50;;;;;;;9.77;1.63;;;;;;;8.75;100.00;100290.16;5232438;28;20083;-69
2023/12/22 10:12:21;;;;;;;7.50;1.53;;;;;;;8.78;100.00;100278.69;5232185;28;20439;-68
2023/12/22 10:14:54;;;;;;;4.47;1.57;;;;;;;8.87;100.00;100279.88;5232815;28;20033;-70
2023/12/22 10:17:25;;;;;;;11.20;2.63;;;;;;;8.89;100.00;100286.69;5231898;28;20132;-69
2023/12/22 10:19:57;;;;;;;6.23;2.53;;;;;;;8.92;100.00;100285.69;5232690;28;20476;-67
2023/12/22 10:22:28;;;;;;;6.93;1.87;;;;;;;8.94;100.00;100287.25;5232212;28;20040;-68
2023/12/22 10:24:59;;;;;;;5.73;2.00;;;;;;;8.98;100.00;100302.72;5231835;28;20084;-68
2023/12/22 10:27:31;;;;;;;10.30;2.47;;;;;;;9.02;100.00;100296.41;5232823;28;20028;-67
2023/12/22 10:30:04;;;;;;;7.17;2.53;;;;;;;9.04;100.00;100290.13;5232078;28;20143;-67
2023/12/22 10:32:41;;;;;;;7.10;2.20;;;;;;;9.06;100.00;100303.09;5231679;28;20057;-67
2023/12/22 10:35:13;;;;;;;6.60;1.80;;;;;;;9.02;100.00;100292.03;5231317;28;20107;-68
2023/12/22 10:37:45;;;;;;;9.90;2.07;;;;;;;9.10;100.00;100294.13;5232461;28;20539;-68
2023/12/22 10:40:17;;;;;;;6.53;1.57;;;;;;;9.08;100.00;100286.41;5232633;28;20462;-67
2023/12/22 10:42:49;;;;;;;6.63;1.77;;;;;;;9.08;100.00;100296.00;5231748;28;20033;-68
2023/12/22 10:45:21;;;;;;;9.23;2.33;;;;;;;9.10;100.00;100298.50;5233274;28;20038;-67
2023/12/22 10:47:54;;;;;;;7.03;2.33;;;;;;;9.12;100.00;100291.44;5231417;28;21028;-68
2023/12/22 10:50:25;;;;;;;5.93;1.70;;;;;;;9.17;100.00;100299.81;5231980;28;20528;-68
2023/12/22 10:52:57;;;;;;;6.40;1.27;;;;;;;9.14;100.00;100295.63;5231836;28;20060;-68
2023/12/22 10:55:28;;;;;;;7.57;2.00;;;;;;;9.08;100.00;100278.56;5231034;28;20033;-68
2023/12/22 10:58:02;;;;;;;6.93;1.90;;;;;;;9.20;100.00;100292.63;5231296;28;20512;-68
2023/12/22 11:00:37;;;;;;;7.53;1.98;;;;;;;9.27;100.00;100300.06;5230763;28;20441;-67
2023/12/22 11:03:12;;;;;;;7.47;1.92;;;;;;;9.41;100.00;100286.97;5229917;28;20380;-67
2023/12/22 11:05:46;;;;;;;7.93;1.50;;;;;;;9.40;100.00;100285.31;5231607;28;20464;-68
2023/12/22 11:08:18;;;;;;;4.78;1.35;;;;;;;9.39;100.00;100288.84;5231226;28;20091;-68
2023/12/22 11:10:58;;;;;;;7.83;1.20;;;;;;;9.43;100.00;100295.56;5230852;28;20017;-68
2023/12/22 11:13:31;;;;;;;5.00;1.47;;;;;;;9.38;100.00;100286.31;5229725;28;20048;-67
2023/12/22 11:16:05;;;;;;;4.33;1.43;;;;;;;9.41;100.00;100286.97;5232021;28;20472;-67
2023/12/22 11:18:36;;;;;;;7.53;2.30;;;;;;;9.43;100.00;100284.25;5231222;28;20368;-67
2023/12/22 11:21:11;;;;;;;7.83;1.40;;;;;;;9.38;100.00;100271.50;5231382;28;20259;-68
2023/12/22 11:23:45;;;;;;;6.10;1.47;;;;;;;9.49;100.00;100289.09;5231201;28;20041;-68
2023/12/22 11:26:21;;;;;;;9.02;2.10;;;;;;;9.54;100.00;100266.13;5229592;28;20025;-67
2023/12/22 11:28:52;;;;;;;7.97;2.47;;;;;;;9.55;100.00;100277.38;5246183;28;20320;-68
2023/12/22 11:31:27;;;;;;;8.60;1.77;;;;;;;9.52;100.00;100275.81;5231400;28;20251;-68
2023/12/22 11:33:59;;;;;;;4.00;1.60;;;;;;;9.53;100.00;100274.06;5229660;28;20033;-68
2023/12/22 11:36:31;;;;;;;6.77;1.77;;;;;;;9.56;100.00;100279.09;5231406;28;20353;-68
2023/12/22 11:39:04;;;;;;;8.03;1.80;;;;;;;9.54;100.00;100273.97;5230875;28;20075;-68
2023/12/22 11:41:37;;;;;;;10.17;2.30;;;;;;;9.58;100.00;100272.00;5230305;28;20108;-68
2023/12/22 11:44:09;;;;;;;5.67;1.67;;;;;;;9.58;100.00;100240.63;5230216;28;20108;-68
2023/12/22 11:46:40;;;;;;;6.00;1.47;;;;;;;9.62;100.00;100246.44;5231593;28;20570;-68
2023/12/22 11:49:12;;;;;;;8.90;1.83;;;;;;;9.62;100.00;100252.53;5230841;28;20033;-68
2023/12/22 11:51:44;;;;;;;5.80;1.47;;;;;;;9.70;100.00;100264.25;5246306;28;20050;-68
2023/12/22 11:54:48;;;;;;;6.70;1.80;;;;;;;9.72;100.00;100249.31;5231145;28;20033;-69
2023/12/22 11:57:28;;;;;;;6.63;1.63;;;;;;;9.74;100.00;100244.84;5231065;28;20508;-69
2023/12/22 12:00:08;;;;;;;7.70;1.97;;;;;;;9.73;100.00;100248.38;5231622;28;20025;-68
2023/12/22 12:02:40;;;;;;;9.37;1.80;;;;;;;9.70;100.00;100265.13;5230662;28;20092;-68
2023/12/22 12:05:12;;;;;;;8.00;2.03;;;;;;;9.66;100.00;100246.19;5231229;28;20028;-68
2023/12/22 12:07:45;;;;;;;9.23;2.27;;;;;;;9.64;100.00;100249.81;5230758;28;20037;-68
2023/12/22 12:10:32;;;;;;;9.83;1.90;;;;;;;9.70;100.00;100243.34;5230309;28;20022;-68
2023/12/22 12:13:11;;;;;;;8.90;1.77;;;;;;;9.61;100.00;100253.47;5230665;28;20075;-68
2023/12/22 12:15:42;;;;;;;5.87;1.50;;;;;;;9.52;100.00;100241.84;5231304;28;20487;-68
2023/12/22 12:18:14;;;;;;;9.07;2.17;;;;;;;9.59;100.00;100241.44;5231351;28;20026;-68
2023/12/22 12:20:46;;;;;;;8.67;2.53;;;;;;;9.74;100.00;100250.06;5235091;28;20026;-67
2023/12/22 12:23:18;;;;;;;6.03;2.07;;;;;;;9.74;100.00;100242.22;5234345;28;20032;-67
2023/12/22 12:25:49;;;;;;;7.30;2.10;;;;;;;9.66;100.00;100227.88;5234338;28;20029;-68
2023/12/22 12:28:28;;;;;;;6.17;1.47;;;;;;;9.69;100.00;100229.44;5234124;28;20041;-71
2023/12/22 12:31:03;;;;;;;8.27;1.60;;;;;;;9.67;100.00;100226.06;5234713;28;20179;-73
2023/12/22 12:33:37;;;;;;;;;;;;;;;9.93;100.00;100240.03;5233140;28;20037;-67
2023/12/22 12:36:10;;;;;;;8.40;2.40;;;;;;;9.75;100.00;100231.66;5233987;28;20058;-68
2023/12/22 12:39:14;;;;;;;12.77;2.60;;;;;;;9.84;100.00;100232.81;5235964;28;20060;-67
2023/12/22 12:41:51;;;;;;;6.20;1.70;;;;;;;9.79;100.00;100224.44;5234733;28;20036;-68
2023/12/22 12:44:24;;;;;;;8.43;1.60;;;;;;;9.78;100.00;100225.38;5234814;28;20083;-68
2023/12/22 12:46:55;;;;;;;8.27;2.30;;;;;;;9.89;100.00;100233.34;5236296;28;20037;-67
2023/12/22 12:49:29;;;;;;;6.90;1.43;;;;;;;9.80;100.00;100226.97;5236245;28;20026;-66
2023/12/22 12:52:01;;;;;;;10.32;1.80;;;;;;;9.81;100.00;100227.78;5236015;28;20342;-66
2023/12/22 12:54:32;;;;;;;13.30;2.50;;;;;;;9.77;100.00;100234.16;5234210;28;20448;-68
2023/12/22 12:57:04;;;;;;;8.97;2.43;;;;;;;9.82;100.00;100226.00;5235375;28;20057;-68
2023/12/22 12:59:35;;;;;;;11.40;2.70;;;;;;;9.77;100.00;100226.31;5235970;28;20023;-70
2023/12/22 13:02:06;;;;;;;8.97;2.07;;;;;;;9.81;100.00;100235.63;5233729;28;20115;-68
2023/12/22 13:04:38;;;;;;;8.30;2.00;;;;;;;9.73;100.00;100236.16;5234912;28;20018;-68
2023/12/22 13:07:13;;;;;;;11.23;2.50;;;;;;;9.67;100.00;100213.84;5235264;28;20021;-68
2023/12/22 13:09:44;;;;;;;7.80;1.73;;;;;;;9.78;100.00;100234.06;5235366;28;20021;-67
2023/12/22 13:12:16;;;;;;;11.67;2.30;;;;;;;9.75;100.00;100236.88;5235941;28;20079;-68
2023/12/22 13:14:48;;;;;;;8.27;1.90;;;;;;;9.80;100.00;100220.88;5235579;28;20064;-68
2023/12/22 13:17:20;;;;;;;8.17;2.10;;;;;;;9.82;100.00;100233.84;5235142;28;20014;-67
2023/12/22 13:19:51;;;;;;;10.37;2.83;;;;;;;9.76;100.00;100241.16;5235713;28;20029;-68
2023/12/22 13:22:23;;;;;;;11.23;1.83;;;;;;;9.84;100.00;100251.13;5238989;28;20048;-68
2023/12/22 13:25:00;;;;;;;7.40;1.60;;;;;;;9.85;100.00;100257.19;5237698;28;20575;-67
2023/12/22 13:27:31;;;;;;;10.70;2.50;;;;;;;9.82;100.00;100250.38;5235429;28;20014;-68
2023/12/22 13:30:03;;;;;;;10.90;3.07;;;;;;;9.84;100.00;100251.13;5235680;28;20021;-68
2023/12/22 13:32:34;;;;;;;8.07;2.40;;;;;;;9.85;100.00;100252.78;5235028;28;20044;-67
2023/12/22 13:35:06;;;;;;;9.20;2.97;;;;;;;9.78;100.00;100239.28;5234269;28;20121;-69
2023/12/22 13:37:41;;;;;;;10.53;2.63;;;;;;;9.84;100.00;100256.38;5234207;28;20542;-68
2023/12/22 13:40:13;;;;;;;8.23;2.47;;;;;;;9.85;100.00;100247.56;5233943;28;20446;-68
2023/12/22 13:42:45;;;;;;;8.37;2.63;;;;;;;9.91;100.00;100270.69;5239746;28;20121;-67
2023/12/22 13:45:16;;;;;;;8.60;2.30;;;;;;;9.91;100.00;100268.06;5233093;28;20392;-69
2023/12/22 13:47:48;;;;;;;9.33;2.60;;;;;;;9.82;100.00;100268.69;5235363;28;20022;-68
2023/12/22 13:50:23;;;;;;;8.40;2.87;;;;;;;9.82;100.00;100258.22;5234693;28;20036;-68
2023/12/22 13:52:54;;;;;;;8.95;2.72;;;;;;;9.78;100.00;100257.59;5233873;28;20033;-66
2023/12/22 13:55:26;;;;;;;7.90;2.13;;;;;;;9.84;100.00;100261.59;5233997;28;20024;-68
2023/12/22 13:58:00;;;;;;;9.43;2.13;;;;;;;9.85;100.00;100276.34;5235452;28;20040;-68
2023/12/22 14:00:32;;;;;;;6.47;1.77;;;;;;;9.82;100.00;100265.22;5234293;28;20500;-68
2023/12/22 14:03:03;;;;;;;7.37;2.00;;;;;;;9.84;100.00;100279.91;5234232;28;20020;-69
2023/12/22 14:05:35;;;;;;;8.43;2.03;;;;;;;9.80;100.00;100255.72;5235205;28;20091;-69
2023/12/22 14:08:06;;;;;;;9.67;2.73;;;;;;;9.90;100.00;100276.88;5233892;28;20018;-69
2023/12/22 14:10:44;;;;;;;6.80;2.00;;;;;;;9.83;100.00;100267.75;5234188;28;20021;-69
2023/12/22 14:13:15;;;;;;;8.37;1.70;;;;;;;9.84;100.00;100273.81;5227663;28;20427;-68
2023/12/22 14:15:46;;;;;;;9.33;2.53;;;;;;;9.85;100.00;100268.50;5233360;28;20021;-69
2023/12/22 14:18:17;;;;;;;11.47;2.60;;;;;;;9.85;100.00;100276.34;5233791;28;20029;-69
2023/12/22 14:20:49;;;;;;;11.07;2.23;;;;;;;9.84;100.00;100284.28;5234848;28;20029;-69
2023/12/22 14:23:21;;;;;;;9.50;2.27;;;;;;;9.80;100.00;100287.09;5232813;28;20022;-69
2023/12/22 14:25:52;;;;;;;12.00;2.87;;;;;;;9.83;100.00;100299.13;5233660;28;20053;-69
2023/12/22 14:28:24;;;;;;;8.97;2.23;;;;;;;9.77;100.00;100276.00;5234175;28;20424;-69
2023/12/22 14:30:55;;;;;;;12.17;2.63;;;;;;;9.83;100.00;100290.47;5232781;28;20077;-69
2023/12/22 14:33:26;;;;;;;7.80;2.47;;;;;;;9.79;100.00;100289.81;5234085;28;20032;-68
2023/12/22 14:35:57;;;;;;;6.40;1.97;;;;;;;9.79;100.00;100289.81;5234343;28;20112;-69
2023/12/22 14:38:29;;;;;;;12.33;2.97;;;;;;;9.74;100.00;100305.78;5234301;28;20025;-72
2023/12/22 14:41:00;;;;;;;10.00;2.40;;;;;;;9.77;100.00;100268.97;5232391;28;20036;-70
2023/12/22 14:43:31;;;;;;;11.63;3.17;;;;;;;9.73;100.00;100301.53;5233637;28;20025;-71
2023/12/22 14:46:03;;;;;;;15.83;2.97;;;;;;;9.79;100.00;100292.44;5232407;28;20026;-70
2023/12/22 14:48:34;;;;;;;10.57;2.10;;;;;;;9.87;100.00;100312.84;5235816;28;20029;-70
2023/12/22 14:51:05;;;;;;;10.53;3.60;;;;;;;9.85;100.00;100306.88;5234635;28;20029;-70
2023/12/22 14:53:37;;;;;;;9.27;2.10;;;;;;;9.85;100.00;100312.94;5231590;28;20045;-71
2023/12/22 14:56:08;;;;;;;10.47;2.60;;;;;;;9.92;100.00;100310.75;5228090;28;20029;-69
2023/12/22 14:58:40;;;;;;;9.67;3.10;;;;;;;9.83;100.00;100303.53;5231807;28;20099;-68
2023/12/22 15:01:14;;;;;;;9.80;1.97;;;;;;;9.84;100.00;100313.91;5235824;28;20032;-69
2023/12/22 15:03:45;;;;;;;9.68;2.45;;;;;;;9.84;100.00;100326.97;5233432;28;20033;-69
2023/12/22 15:06:16;;;;;;;11.27;2.63;;;;;;;9.81;100.00;100324.53;5232384;28;20624;-69
2023/12/22 15:08:48;;;;;;;9.70;2.50;;;;;;;9.83;100.00;100343.59;5233311;28;20465;-69
2023/12/22 15:11:19;;;;;;;10.47;2.43;;;;;;;9.82;100.00;100331.47;5231668;28;20051;-69
2023/12/22 15:13:50;;;;;;;10.57;2.63;;;;;;;9.75;100.00;100338.03;5222358;28;20117;-68
2023/12/22 15:16:22;;;;;;;14.80;3.57;;;;;;;9.84;100.00;100340.06;5232413;28;20033;-69
2023/12/22 15:18:53;;;;;;;12.57;2.93;;;;;;;9.83;100.00;100353.22;5221075;28;20109;-67
2023/12/22 15:21:24;;;;;;;10.27;2.30;;;;;;;9.83;100.00;100350.63;5233434;28;20039;-69
2023/12/22 15:23:56;;;;;;;10.30;2.70;;;;;;;9.81;100.00;100348.06;5227114;28;20123;-70
2023/12/22 15:26:27;;;;;;;8.57;2.63;;;;;;;9.76;100.00;100352.75;5232030;28;20029;-69
2023/12/22 15:28:58;;;;;;;11.30;2.33;;;;;;;9.78;100.00;100327.34;5227384;28;20097;-69
2023/12/22 15:31:30;;;;;;;14.93;2.83;;;;;;;9.75;100.00;100351.09;5228820;28;20061;-69
2023/12/22 15:34:01;;;;;;;11.30;2.80;;;;;;;9.73;100.00;100356.44;5231521;28;20392;-69
2023/12/22 15:36:33;;;;;;;11.37;2.90;;;;;;;9.71;100.00;100365.28;5229928;28;20033;-69
2023/12/22 15:39:05;;;;;;;12.23;3.10;;;;;;;9.74;100.00;100359.91;5235253;28;20030;-69
2023/12/22 15:41:36;;;;;;;16.30;4.00;;;;;;;9.71;100.00;100389.69;5231533;28;20026;-69
2023/12/22 15:44:07;;;;;;;12.43;3.43;;;;;;;9.71;100.00;100375.75;5232903;28;20025;-70
2023/12/22 15:46:38;;;;;;;10.80;2.97;;;;;;;9.71;100.00;100379.22;5231660;28;20017;-69
2023/12/22 15:49:10;;;;;;;11.33;2.83;;;;;;;9.75;100.00;100377.25;5230938;28;20026;-68
2023/12/22 15:51:41;;;;;;;12.70;3.13;;;;;;;9.79;100.00;100389.22;5231274;28;20029;-67
2023/12/22 15:54:12;;;;;;;10.67;3.40;;;;;;;9.75;100.00;100399.03;5224440;28;20473;-67
2023/12/22 15:56:44;;;;;;;12.20;2.53;;;;;;;9.74;100.00;100394.72;5236656;28;20491;-68
2023/12/22 15:59:15;;;;;;;11.83;2.57;;;;;;;9.68;100.00;100408.19;5236326;28;20519;-69
2023/12/22 16:01:46;;;;;;;8.70;2.53;;;;;;;9.74;100.00;100396.50;5237451;28;20036;-70
2023/12/22 16:04:18;;;;;;;10.90;2.87;;;;;;;9.68;100.00;100382.88;5235685;28;20148;-68
2023/12/22 16:06:49;;;;;;;11.43;2.90;;;;;;;9.73;100.00;100400.03;5230691;28;20029;-69
2023/12/22 16:09:20;;;;;;;10.80;3.30;;;;;;;9.72;100.00;100393.16;5235353;28;20420;-71
2023/12/22 16:11:52;;;;;;;12.70;2.73;;;;;;;9.72;100.00;100388.72;5236277;28;20072;-71
2023/12/22 16:14:23;;;;;;;11.77;3.00;;;;;;;9.70;100.00;100408.94;5228529;28;20021;-68
2023/12/22 16:16:57;;;;;;;12.63;2.97;;;;;;;9.73;100.00;100411.34;5233515;28;20037;-69
2023/12/22 16:19:29;;;;;;;9.25;3.25;;;;;;;9.65;100.00;100403.16;5225476;28;20524;-69
2023/12/22 16:22:01;;;;;;;13.30;2.60;;;;;;;9.70;100.00;100421.16;5234898;28;20029;-69
2023/12/22 16:24:33;;;;;;;15.43;3.10;;;;;;;9.74;100.00;100413.00;5234910;28;20049;-70
2023/12/22 16:27:04;;;;;;;9.50;2.33;;;;;;;9.67;100.00;100407.34;5235104;28;20028;-70
2023/12/22 16:29:42;;;;;;;8.20;2.50;;;;;;;9.74;100.00;100412.19;5234666;28;20493;-71
2023/12/22 16:32:15;;;;;;;7.87;2.77;;;;;;;9.67;100.00;100396.88;5235268;28;20038;-70
2023/12/22 16:34:46;;;;;;;11.30;2.93;;;;;;;9.74;100.00;100396.50;5236322;28;20055;-69
2023/12/22 16:37:18;;;;;;;8.17;2.47;;;;;;;9.72;100.00;100404.41;5236263;28;20026;-66
2023/12/22 16:39:51;;;;;;;8.17;3.20;;;;;;;9.74;100.00;100401.75;5235616;28;20029;-66
2023/12/22 16:42:24;;;;;;;13.13;3.10;;;;;;;9.75;100.00;100416.47;5235982;28;20018;-66
2023/12/22 16:44:55;;;;;;;15.67;2.87;;;;;;;9.77;100.00;100432.91;5236065;28;20029;-69
2023/12/22 16:47:29;;;;;;;9.07;2.47;;;;;;;9.80;100.00;100428.34;5232187;28;20033;-70
2023/12/22 16:50:00;;;;;;;11.38;2.70;;;;;;;9.79;100.00;100431.88;5222429;28;20127;-69
2023/12/22 16:52:33;;;;;;;11.37;4.23;;;;;;;9.77;100.00;100432.91;5228571;28;20029;-69
2023/12/22 16:55:05;;;;;;;12.23;3.70;;;;;;;9.72;100.00;100427.13;5226933;28;20675;-69
2023/12/22 16:57:38;;;;;;;11.57;2.53;;;;;;;9.75;100.00;100434.78;5228707;28;20044;-69
2023/12/22 17:00:10;;;;;;;10.57;3.13;;;;;;;9.71;100.00;100436.75;5227055;28;20041;-67
2023/12/22 17:02:41;;;;;;;12.80;2.70;;;;;;;9.75;100.00;100430.41;5225996;28;20026;-66
2023/12/22 17:05:13;;;;;;;10.63;2.77;;;;;;;9.75;100.00;100434.78;5227940;28;20021;-66
2023/12/22 17:07:44;;;;;;;10.80;2.80;;;;;;;9.76;100.00;100436.44;5229616;28;20109;-67
2023/12/22 17:10:16;;;;;;;11.73;3.90;;;;;;;9.77;100.00;100432.91;5227555;28;20551;-68
2023/12/22 17:12:47;;;;;;;13.27;2.97;;;;;;;9.77;100.00;100427.69;5228203;28;20033;-68
2023/12/22 17:15:18;;;;;;;10.13;2.57;;;;;;;9.78;100.00;100424.13;5228726;28;20025;-68
2023/12/22 17:17:50;;;;;;;9.57;2.50;;;;;;;9.76;100.00;100431.22;5234324;28;20021;-68
2023/12/22 17:20:21;;;;;;;12.90;3.40;;;;;;;9.77;100.00;100409.38;5228190;28;20566;-68
2023/12/22 17:22:52;;;;;;;13.60;3.70;;;;;;;9.76;100.00;100433.84;5227997;28;20040;-70
2023/12/22 17:25:23;;;;;;;14.00;3.63;;;;;;;9.81;100.00;100429.16;5225480;28;20033;-68
2023/12/22 17:27:55;;;;;;;9.87;3.47;;;;;;;9.77;100.00;100427.69;5228517;28;20055;-68
2023/12/22 17:30:27;;;;;;;16.73;3.80;;;;;;;9.72;100.00;100440.22;5227401;28;20036;-68
2023/12/22 17:32:58;;;;;;;13.87;2.80;;;;;;;9.76;100.00;100460.00;5227085;28;20440;-68
2023/12/22 17:35:30;;;;;;;10.57;2.50;;;;;;;9.77;100.00;100438.97;5228828;28;20041;-69
2023/12/22 17:38:02;;;;;;;8.23;3.03;;;;;;;9.82;100.00;100451.78;5227580;28;20033;-67
2023/12/22 17:40:33;;;;;;;12.47;3.97;;;;;;;9.76;100.00;100445.16;5225624;28;20594;-67
2023/12/22 17:43:05;;;;;;;14.50;3.13;;;;;;;9.83;100.00;100453.44;5226124;28;20099;-71
2023/12/22 17:45:37;;;;;;;10.90;3.00;;;;;;;9.87;100.00;100459.31;5227551;28;20464;-67
2023/12/22 17:48:08;;;;;;;15.37;4.17;;;;;;;9.82;100.00;100462.25;5226087;28;20040;-67
2023/12/22 17:50:41;;;;;;;16.00;2.90;;;;;;;9.83;100.00;100470.94;5228102;28;20036;-68
2023/12/22 17:53:13;;;;;;;10.37;2.87;;;;;;;9.69;100.00;100436.00;5226511;28;20029;-68
2023/12/22 17:55:44;;;;;;;13.07;3.10;;;;;;;9.87;100.00;100464.56;5226849;28;20029;-68
2023/12/22 17:58:15;;;;;;;9.33;2.43;;;;;;;9.72;100.00;100461.13;5225840;28;20132;-69
2023/12/22 18:00:46;;;;;;;8.90;3.47;;;;;;;9.88;100.00;100479.31;5226856;28;20033;-66
2023/12/22 18:03:18;;;;;;;8.00;2.63;;;;;;;9.92;100.00;100468.56;5227857;28;20029;-69
2023/12/22 18:05:49;;;;;;;11.43;3.00;;;;;;;9.88;100.00;100477.53;5226957;28;20491;-68
2023/12/22 18:08:20;;;;;;;9.93;3.27;;;;;;;9.76;100.00;100476.53;5227582;28;20694;-70
2023/12/22 18:10:52;;;;;;;11.03;2.20;;;;;;;9.79;100.00;100478.94;5227498;28;20157;-70
2023/12/22 18:13:23;;;;;;;12.20;2.47;;;;;;;9.77;100.00;100487.84;5227125;28;20033;-70
2023/12/22 18:15:54;;;;;;;23.30;4.73;;;;;;;9.79;100.00;100491.19;5226766;28;20033;-72
2023/12/22 18:18:26;;;;;;;10.37;2.63;;;;;;;9.79;100.00;100481.56;5226901;28;20476;-72
2023/12/22 18:20:58;;;;;;;10.90;2.93;;;;;;;9.76;100.00;100486.13;5228428;28;20025;-71
2023/12/22 18:23:29;;;;;;;9.80;2.57;;;;;;;9.81;100.00;100499.78;5225531;28;20061;-71
2023/12/22 18:26:02;;;;;;;13.23;2.70;;;;;;;9.88;100.00;100501.06;5227206;28;20037;-70
2023/12/22 18:28:33;;;;;;;8.80;2.63;;;;;;;9.85;100.00;100497.81;5226743;28;20134;-75
2023/12/22 18:31:04;;;;;;;13.73;3.20;;;;;;;9.82;100.00;100498.00;5226468;28;21056;-69
2023/12/22 18:33:36;;;;;;;8.40;2.03;;;;;;;9.83;100.00;100518.84;5227953;28;20404;-69
2023/12/22 18:36:07;;;;;;;13.40;3.33;;;;;;;9.80;100.00;100509.41;5226288;28;20037;-70
2023/12/22 18:38:39;;;;;;;8.83;2.80;;;;;;;9.82;100.00;100513.69;5227165;28;20047;-70
2023/12/22 18:41:10;;;;;;;17.97;3.00;;;;;;;9.78;100.00;100507.81;5227238;28;20530;-72
2023/12/22 18:43:42;;;;;;;13.17;3.13;;;;;;;9.80;100.00;100532.09;5225727;28;20695;-71
2023/12/22 18:46:13;;;;;;;11.53;2.70;;;;;;;9.79;100.00;100522.59;5226858;28;20415;-72
2023/12/22 18:48:44;;;;;;;12.00;3.17;;;;;;;9.72;100.00;100502.97;5226070;28;20535;-69
2023/12/22 18:51:17;;;;;;;13.17;3.03;;;;;;;9.86;100.00;100521.25;5226640;28;20035;-70
2023/12/22 18:53:50;;;;;;;13.93;2.80;;;;;;;9.76;100.00;100530.59;5226081;28;20109;-70
2023/12/22 18:56:24;;;;;;;14.43;3.23;;;;;;;9.85;100.00;100529.19;5226300;28;20066;-72
2023/12/22 18:58:56;;;;;;;;;;;;;;;10.00;100.00;100522.19;5225653;28;20032;-70
2023/12/22 19:01:27;;;;;;;14.40;4.07;;;;;;;9.85;100.00;100535.28;5224762;28;19905;-71
2023/12/22 19:03:59;;;;;;;12.57;3.97;;;;;;;9.81;100.00;100528.53;5226798;28;20033;-71
2023/12/22 19:06:30;;;;;;;12.63;2.80;;;;;;;9.84;100.00;100554.53;5225336;28;20065;-67
2023/12/22 19:09:01;;;;;;;11.70;3.00;;;;;;;9.80;100.00;100559.09;5224566;28;20037;-68
2023/12/22 19:11:33;;;;;;;16.37;2.77;;;;;;;9.77;100.00;100545.38;5226408;28;20041;-67
2023/12/22 19:14:04;;;;;;;12.50;3.00;;;;;;;9.79;100.00;100559.22;5223180;28;20034;-66
2023/12/22 19:16:35;;;;;;;15.60;3.57;;;;;;;9.73;100.00;100551.72;5222371;28;20052;-70